sensor_id;sensor_type;location;lat;lon;timestamp;P1;durP1;ratioP1;P2;durP2;ratioP2
2860;SDS011;1438;50.922;6.704;2023-07-16T00:01:47;6.10;;;2.73;;
2860;SDS011;1438;50.922;6.704;2023-07-16T00:04:13;6.03;;;2.57;;
2860;SDS011;1438;50.922;6.704;2023-07-16T00:06:39;4.43;;;3.23;;
2860;SDS011;1438;50.922;6.704;2023-07-16T00:09:05;4.17;;;2.80;;
2860;SDS011;1438;50.922;6.704;2023-07-16T00:11:31;3.40;;;2.50;;
2860;SDS011;1438;50.922;6.704;2023-07-16T00:13:57;5.10;;;2.80;;
2860;SDS011;1438;50.922;6.704;2023-07-16T00:16:23;4.03;;;2.73;;
2860;SDS011;1438;50.922;6.704;2023-07-16T00:18:49;3.70;;;1.93;;
2860;SDS011;1438;50.922;6.704;2023-07-16T00:21:15;2.90;;;2.30;;
2860;SDS011;1438;50.922;6.704;2023-07-16T00:23:41;2.43;;;2.10;;
2860;SDS011;1438;50.922;6.704;2023-07-16T00:26:07;6.00;;;2.53;;
2860;SDS011;1438;50.922;6.704;2023-07-16T00:28:33;12.43;;;2.50;;
2860;SDS011;1438;50.922;6.704;2023-07-16T00:31:00;3.40;;;2.67;;
2860;SDS011;1438;50.922;6.704;2023-07-16T00:33:26;7.60;;;2.47;;
2860;SDS011;1438;50.922;6.704;2023-07-16T00:35:52;3.03;;;1.80;;
2860;SDS011;1438;50.922;6.704;2023-07-16T00:38:18;10.27;;;2.37;;
2860;SDS011;1438;50.922;6.704;2023-07-16T00:40:45;3.60;;;2.40;;
2860;SDS011;1438;50.922;6.704;2023-07-16T00:43:11;3.83;;;2.40;;
2860;SDS011;1438;50.922;6.704;2023-07-16T00:45:37;2.87;;;2.13;;
2860;SDS011;1438;50.922;6.704;2023-07-16T00:48:04;4.30;;;2.17;;
2860;SDS011;1438;50.922;6.704;2023-07-16T00:50:31;3.93;;;2.27;;
2860;SDS011;1438;50.922;6.704;2023-07-16T00:53:01;3.70;;;2.20;;
2860;SDS011;1438;50.922;6.704;2023-07-16T00:55:28;4.90;;;2.13;;
2860;SDS011;1438;50.922;6.704;2023-07-16T00:57:56;4.43;;;2.87;;
2860;SDS011;1438;50.922;6.704;2023-07-16T01:00:26;5.77;;;2.57;;
2860;SDS011;1438;50.922;6.704;2023-07-16T01:02:52;4.63;;;2.67;;
2860;SDS011;1438;50.922;6.704;2023-07-16T01:05:18;3.23;;;1.93;;
2860;SDS011;1438;50.922;6.704;2023-07-16T01:07:47;4.50;;;2.30;;
2860;SDS011;1438;50.922;6.704;2023-07-16T01:10:16;3.63;;;2.00;;
2860;SDS011;1438;50.922;6.704;2023-07-16T01:12:42;5.40;;;2.40;;
2860;SDS011;1438;50.922;6.704;2023-07-16T01:15:08;3.87;;;2.83;;
2860;SDS011;1438;50.922;6.704;2023-07-16T01:17:34;3.33;;;1.80;;
2860;SDS011;1438;50.922;6.704;2023-07-16T01:20:01;2.13;;;1.80;;
2860;SDS011;1438;50.922;6.704;2023-07-16T01:30:07;3.57;;;1.93;;
2860;SDS011;1438;50.922;6.704;2023-07-16T01:32:34;4.27;;;2.23;;
2860;SDS011;1438;50.922;6.704;2023-07-16T01:35:02;3.57;;;1.83;;
2860;SDS011;1438;50.922;6.704;2023-07-16T01:37:28;5.23;;;2.00;;
2860;SDS011;1438;50.922;6.704;2023-07-16T01:39:54;4.87;;;1.87;;
2860;SDS011;1438;50.922;6.704;2023-07-16T01:42:20;3.40;;;1.70;;
2860;SDS011;1438;50.922;6.704;2023-07-16T01:44:46;5.10;;;2.40;;
2860;SDS011;1438;50.922;6.704;2023-07-16T01:49:44;5.53;;;1.97;;
2860;SDS011;1438;50.922;6.704;2023-07-16T01:52:11;9.13;;;2.23;;
2860;SDS011;1438;50.922;6.704;2023-07-16T01:54:37;5.60;;;2.17;;
2860;SDS011;1438;50.922;6.704;2023-07-16T01:57:04;3.40;;;1.50;;
2860;SDS011;1438;50.922;6.704;2023-07-16T01:59:30;3.63;;;1.87;;
2860;SDS011;1438;50.922;6.704;2023-07-16T02:01:56;11.57;;;2.03;;
2860;SDS011;1438;50.922;6.704;2023-07-16T02:04:22;6.20;;;2.00;;
2860;SDS011;1438;50.922;6.704;2023-07-16T02:06:48;3.20;;;1.70;;
2860;SDS011;1438;50.922;6.704;2023-07-16T02:09:14;7.07;;;2.50;;
2860;SDS011;1438;50.922;6.704;2023-07-16T02:11:40;5.83;;;2.07;;
2860;SDS011;1438;50.922;6.704;2023-07-16T02:14:06;4.37;;;1.83;;
2860;SDS011;1438;50.922;6.704;2023-07-16T02:16:32;5.50;;;2.23;;
2860;SDS011;1438;50.922;6.704;2023-07-16T02:18:58;3.50;;;1.87;;
2860;SDS011;1438;50.922;6.704;2023-07-16T02:21:24;5.17;;;1.70;;
2860;SDS011;1438;50.922;6.704;2023-07-16T02:23:50;4.73;;;1.77;;
2860;SDS011;1438;50.922;6.704;2023-07-16T02:26:16;7.43;;;2.10;;
2860;SDS011;1438;50.922;6.704;2023-07-16T02:28:42;3.43;;;1.73;;
2860;SDS011;1438;50.922;6.704;2023-07-16T02:31:08;3.50;;;1.63;;
2860;SDS011;1438;50.922;6.704;2023-07-16T02:33:34;10.63;;;2.03;;
2860;SDS011;1438;50.922;6.704;2023-07-16T02:36:00;5.30;;;2.00;;
2860;SDS011;1438;50.922;6.704;2023-07-16T02:38:26;4.47;;;1.77;;
2860;SDS011;1438;50.922;6.704;2023-07-16T02:40:52;8.20;;;1.73;;
2860;SDS011;1438;50.922;6.704;2023-07-16T02:43:18;5.20;;;1.63;;
2860;SDS011;1438;50.922;6.704;2023-07-16T02:45:44;9.97;;;2.03;;
2860;SDS011;1438;50.922;6.704;2023-07-16T02:48:10;3.70;;;1.80;;
2860;SDS011;1438;50.922;6.704;2023-07-16T02:50:37;5.23;;;1.87;;
2860;SDS011;1438;50.922;6.704;2023-07-16T02:53:03;3.27;;;1.97;;
2860;SDS011;1438;50.922;6.704;2023-07-16T02:55:30;5.93;;;1.87;;
2860;SDS011;1438;50.922;6.704;2023-07-16T02:57:56;4.20;;;1.63;;
2860;SDS011;1438;50.922;6.704;2023-07-16T03:00:22;4.53;;;2.00;;
2860;SDS011;1438;50.922;6.704;2023-07-16T03:02:48;5.63;;;1.80;;
2860;SDS011;1438;50.922;6.704;2023-07-16T03:05:18;3.73;;;2.13;;
2860;SDS011;1438;50.922;6.704;2023-07-16T03:07:44;4.30;;;2.00;;
2860;SDS011;1438;50.922;6.704;2023-07-16T03:10:10;5.53;;;2.30;;
2860;SDS011;1438;50.922;6.704;2023-07-16T03:12:36;3.03;;;1.83;;
2860;SDS011;1438;50.922;6.704;2023-07-16T03:15:02;6.17;;;1.77;;
2860;SDS011;1438;50.922;6.704;2023-07-16T03:17:28;5.50;;;2.20;;
2860;SDS011;1438;50.922;6.704;2023-07-16T03:19:54;3.40;;;1.83;;
2860;SDS011;1438;50.922;6.704;2023-07-16T03:22:20;3.73;;;2.00;;
2860;SDS011;1438;50.922;6.704;2023-07-16T03:24:46;3.47;;;2.00;;
2860;SDS011;1438;50.922;6.704;2023-07-16T03:27:12;3.10;;;1.90;;
2860;SDS011;1438;50.922;6.704;2023-07-16T03:29:38;6.17;;;1.90;;
2860;SDS011;1438;50.922;6.704;2023-07-16T03:32:04;3.57;;;2.20;;
2860;SDS011;1438;50.922;6.704;2023-07-16T03:34:30;6.33;;;2.07;;
2860;SDS011;1438;50.922;6.704;2023-07-16T03:36:57;3.80;;;2.00;;
2860;SDS011;1438;50.922;6.704;2023-07-16T03:39:23;7.40;;;2.57;;
2860;SDS011;1438;50.922;6.704;2023-07-16T03:41:49;7.30;;;2.07;;
2860;SDS011;1438;50.922;6.704;2023-07-16T03:44:15;7.20;;;2.17;;
2860;SDS011;1438;50.922;6.704;2023-07-16T03:46:41;7.63;;;2.27;;
2860;SDS011;1438;50.922;6.704;2023-07-16T03:49:07;6.07;;;2.37;;
2860;SDS011;1438;50.922;6.704;2023-07-16T03:51:33;7.27;;;2.27;;
2860;SDS011;1438;50.922;6.704;2023-07-16T03:53:59;10.50;;;2.20;;
2860;SDS011;1438;50.922;6.704;2023-07-16T03:56:25;3.10;;;2.13;;
2860;SDS011;1438;50.922;6.704;2023-07-16T03:58:52;4.50;;;2.20;;
2860;SDS011;1438;50.922;6.704;2023-07-16T04:01:18;3.20;;;2.17;;
2860;SDS011;1438;50.922;6.704;2023-07-16T04:03:44;7.30;;;2.77;;
2860;SDS011;1438;50.922;6.704;2023-07-16T04:06:10;7.13;;;2.37;;
2860;SDS011;1438;50.922;6.704;2023-07-16T04:08:37;6.93;;;3.17;;
2860;SDS011;1438;50.922;6.704;2023-07-16T04:11:04;3.47;;;1.87;;
2860;SDS011;1438;50.922;6.704;2023-07-16T04:13:30;4.13;;;2.40;;
2860;SDS011;1438;50.922;6.704;2023-07-16T04:15:57;2.20;;;1.90;;
2860;SDS011;1438;50.922;6.704;2023-07-16T04:18:23;8.93;;;2.90;;
2860;SDS011;1438;50.922;6.704;2023-07-16T04:20:50;5.60;;;2.43;;
2860;SDS011;1438;50.922;6.704;2023-07-16T04:23:16;6.90;;;2.40;;
2860;SDS011;1438;50.922;6.704;2023-07-16T04:25:42;4.33;;;2.07;;
2860;SDS011;1438;50.922;6.704;2023-07-16T04:28:08;5.60;;;2.70;;
2860;SDS011;1438;50.922;6.704;2023-07-16T04:30:34;5.70;;;2.00;;
2860;SDS011;1438;50.922;6.704;2023-07-16T04:33:02;7.10;;;2.30;;
2860;SDS011;1438;50.922;6.704;2023-07-16T04:35:28;10.90;;;3.20;;
2860;SDS011;1438;50.922;6.704;2023-07-16T04:37:54;5.17;;;2.30;;
2860;SDS011;1438;50.922;6.704;2023-07-16T04:40:20;4.90;;;2.73;;
2860;SDS011;1438;50.922;6.704;2023-07-16T04:42:46;4.53;;;2.40;;
2860;SDS011;1438;50.922;6.704;2023-07-16T04:45:12;6.73;;;2.80;;
2860;SDS011;1438;50.922;6.704;2023-07-16T04:47:38;6.33;;;2.53;;
2860;SDS011;1438;50.922;6.704;2023-07-16T04:50:04;6.17;;;2.27;;
2860;SDS011;1438;50.922;6.704;2023-07-16T04:52:31;7.77;;;2.77;;
2860;SDS011;1438;50.922;6.704;2023-07-16T04:54:57;7.07;;;3.23;;
2860;SDS011;1438;50.922;6.704;2023-07-16T04:57:23;5.63;;;2.47;;
2860;SDS011;1438;50.922;6.704;2023-07-16T04:59:49;12.70;;;2.70;;
2860;SDS011;1438;50.922;6.704;2023-07-16T05:02:15;6.33;;;2.73;;
2860;SDS011;1438;50.922;6.704;2023-07-16T05:04:42;8.43;;;3.57;;
2860;SDS011;1438;50.922;6.704;2023-07-16T05:07:13;6.20;;;3.70;;
2860;SDS011;1438;50.922;6.704;2023-07-16T05:09:39;6.53;;;2.77;;
2860;SDS011;1438;50.922;6.704;2023-07-16T05:12:05;8.07;;;2.70;;
2860;SDS011;1438;50.922;6.704;2023-07-16T05:14:42;7.10;;;3.50;;
2860;SDS011;1438;50.922;6.704;2023-07-16T05:17:08;8.67;;;2.90;;
2860;SDS011;1438;50.922;6.704;2023-07-16T05:19:34;6.93;;;3.00;;
2860;SDS011;1438;50.922;6.704;2023-07-16T05:22:00;4.47;;;3.30;;
2860;SDS011;1438;50.922;6.704;2023-07-16T05:24:26;4.30;;;2.63;;
2860;SDS011;1438;50.922;6.704;2023-07-16T05:26:52;6.37;;;2.90;;
2860;SDS011;1438;50.922;6.704;2023-07-16T05:29:19;6.90;;;3.10;;
2860;SDS011;1438;50.922;6.704;2023-07-16T05:31:45;5.83;;;3.27;;
2860;SDS011;1438;50.922;6.704;2023-07-16T05:34:11;6.00;;;2.70;;
2860;SDS011;1438;50.922;6.704;2023-07-16T05:36:38;5.80;;;3.13;;
2860;SDS011;1438;50.922;6.704;2023-07-16T05:39:04;5.30;;;3.70;;
2860;SDS011;1438;50.922;6.704;2023-07-16T05:41:30;7.80;;;3.70;;
2860;SDS011;1438;50.922;6.704;2023-07-16T05:43:56;6.60;;;3.57;;
2860;SDS011;1438;50.922;6.704;2023-07-16T05:46:22;6.27;;;3.60;;
2860;SDS011;1438;50.922;6.704;2023-07-16T05:48:48;9.93;;;4.00;;
2860;SDS011;1438;50.922;6.704;2023-07-16T05:51:14;6.43;;;3.57;;
2860;SDS011;1438;50.922;6.704;2023-07-16T05:53:40;7.23;;;3.93;;
2860;SDS011;1438;50.922;6.704;2023-07-16T05:56:06;7.50;;;4.47;;
2860;SDS011;1438;50.922;6.704;2023-07-16T05:58:32;13.87;;;4.00;;
2860;SDS011;1438;50.922;6.704;2023-07-16T06:00:58;9.03;;;4.10;;
2860;SDS011;1438;50.922;6.704;2023-07-16T06:03:24;5.60;;;4.03;;
2860;SDS011;1438;50.922;6.704;2023-07-16T06:05:50;6.33;;;4.00;;
2860;SDS011;1438;50.922;6.704;2023-07-16T06:08:16;8.83;;;4.00;;
2860;SDS011;1438;50.922;6.704;2023-07-16T06:10:42;5.40;;;4.40;;
2860;SDS011;1438;50.922;6.704;2023-07-16T06:13:08;9.30;;;4.73;;
2860;SDS011;1438;50.922;6.704;2023-07-16T06:15:34;4.93;;;3.77;;
2860;SDS011;1438;50.922;6.704;2023-07-16T06:18:01;5.90;;;4.03;;
2860;SDS011;1438;50.922;6.704;2023-07-16T06:20:27;7.93;;;4.10;;
2860;SDS011;1438;50.922;6.704;2023-07-16T06:22:53;11.07;;;4.87;;
2860;SDS011;1438;50.922;6.704;2023-07-16T06:25:21;8.63;;;4.80;;
2860;SDS011;1438;50.922;6.704;2023-07-16T06:27:47;10.07;;;4.47;;
2860;SDS011;1438;50.922;6.704;2023-07-16T06:30:13;18.73;;;5.07;;
2860;SDS011;1438;50.922;6.704;2023-07-16T06:32:39;8.60;;;4.87;;
2860;SDS011;1438;50.922;6.704;2023-07-16T06:35:05;8.20;;;4.90;;
2860;SDS011;1438;50.922;6.704;2023-07-16T06:37:31;7.97;;;4.67;;
2860;SDS011;1438;50.922;6.704;2023-07-16T06:39:57;9.30;;;4.10;;
2860;SDS011;1438;50.922;6.704;2023-07-16T06:42:23;4.33;;;3.87;;
2860;SDS011;1438;50.922;6.704;2023-07-16T06:44:49;5.40;;;4.17;;
2860;SDS011;1438;50.922;6.704;2023-07-16T06:47:15;9.37;;;4.10;;
2860;SDS011;1438;50.922;6.704;2023-07-16T06:49:41;7.13;;;5.00;;
2860;SDS011;1438;50.922;6.704;2023-07-16T06:52:07;9.43;;;5.00;;
2860;SDS011;1438;50.922;6.704;2023-07-16T06:54:33;10.60;;;4.67;;
2860;SDS011;1438;50.922;6.704;2023-07-16T06:56:59;10.07;;;4.67;;
2860;SDS011;1438;50.922;6.704;2023-07-16T06:59:25;6.90;;;4.37;;
2860;SDS011;1438;50.922;6.704;2023-07-16T07:01:51;8.03;;;4.30;;
2860;SDS011;1438;50.922;6.704;2023-07-16T07:04:17;9.20;;;5.17;;
2860;SDS011;1438;50.922;6.704;2023-07-16T07:06:43;7.97;;;4.40;;
2860;SDS011;1438;50.922;6.704;2023-07-16T07:09:09;10.07;;;4.43;;
2860;SDS011;1438;50.922;6.704;2023-07-16T07:11:35;8.13;;;4.87;;
2860;SDS011;1438;50.922;6.704;2023-07-16T07:14:02;9.37;;;4.97;;
2860;SDS011;1438;50.922;6.704;2023-07-16T07:16:28;6.50;;;4.43;;
2860;SDS011;1438;50.922;6.704;2023-07-16T07:18:54;11.33;;;4.70;;
2860;SDS011;1438;50.922;6.704;2023-07-16T07:21:20;9.20;;;4.40;;
2860;SDS011;1438;50.922;6.704;2023-07-16T07:23:46;9.60;;;4.83;;
2860;SDS011;1438;50.922;6.704;2023-07-16T07:26:12;6.33;;;4.30;;
2860;SDS011;1438;50.922;6.704;2023-07-16T07:28:38;6.33;;;4.80;;
2860;SDS011;1438;50.922;6.704;2023-07-16T07:31:04;7.83;;;4.70;;
2860;SDS011;1438;50.922;6.704;2023-07-16T07:33:30;5.40;;;4.13;;
2860;SDS011;1438;50.922;6.704;2023-07-16T07:35:57;6.83;;;4.60;;
2860;SDS011;1438;50.922;6.704;2023-07-16T07:38:23;5.53;;;4.00;;
2860;SDS011;1438;50.922;6.704;2023-07-16T07:40:49;8.17;;;4.40;;
2860;SDS011;1438;50.922;6.704;2023-07-16T07:43:15;6.30;;;4.67;;
2860;SDS011;1438;50.922;6.704;2023-07-16T07:45:41;5.53;;;4.40;;
2860;SDS011;1438;50.922;6.704;2023-07-16T07:48:07;11.20;;;4.47;;
2860;SDS011;1438;50.922;6.704;2023-07-16T07:50:33;9.23;;;5.27;;
2860;SDS011;1438;50.922;6.704;2023-07-16T07:52:59;7.93;;;4.23;;
2860;SDS011;1438;50.922;6.704;2023-07-16T07:55:25;7.33;;;4.10;;
2860;SDS011;1438;50.922;6.704;2023-07-16T07:57:51;8.20;;;3.20;;
2860;SDS011;1438;50.922;6.704;2023-07-16T08:00:17;7.50;;;3.43;;
2860;SDS011;1438;50.922;6.704;2023-07-16T08:02:43;6.67;;;4.77;;
2860;SDS011;1438;50.922;6.704;2023-07-16T08:05:09;6.67;;;3.60;;
2860;SDS011;1438;50.922;6.704;2023-07-16T08:07:35;6.20;;;3.90;;
2860;SDS011;1438;50.922;6.704;2023-07-16T08:10:02;5.87;;;3.57;;
2860;SDS011;1438;50.922;6.704;2023-07-16T08:12:28;2.97;;;2.67;;
2860;SDS011;1438;50.922;6.704;2023-07-16T08:14:55;6.03;;;2.47;;
2860;SDS011;1438;50.922;6.704;2023-07-16T08:17:21;5.00;;;3.10;;
2860;SDS011;1438;50.922;6.704;2023-07-16T08:19:47;9.73;;;3.63;;
2860;SDS011;1438;50.922;6.704;2023-07-16T08:22:13;5.37;;;4.00;;
2860;SDS011;1438;50.922;6.704;2023-07-16T08:24:39;4.50;;;3.40;;
2860;SDS011;1438;50.922;6.704;2023-07-16T08:27:05;8.63;;;3.73;;
2860;SDS011;1438;50.922;6.704;2023-07-16T08:29:31;4.67;;;3.90;;
2860;SDS011;1438;50.922;6.704;2023-07-16T08:31:58;3.90;;;2.90;;
2860;SDS011;1438;50.922;6.704;2023-07-16T08:34:24;9.00;;;3.93;;
2860;SDS011;1438;50.922;6.704;2023-07-16T08:36:50;4.10;;;3.10;;
2860;SDS011;1438;50.922;6.704;2023-07-16T08:39:16;5.03;;;3.20;;
2860;SDS011;1438;50.922;6.704;2023-07-16T08:41:44;3.80;;;3.17;;
2860;SDS011;1438;50.922;6.704;2023-07-16T08:44:10;10.10;;;3.30;;
2860;SDS011;1438;50.922;6.704;2023-07-16T08:46:37;7.30;;;3.63;;
2860;SDS011;1438;50.922;6.704;2023-07-16T08:49:03;5.00;;;3.60;;
2860;SDS011;1438;50.922;6.704;2023-07-16T08:51:31;5.10;;;3.37;;
2860;SDS011;1438;50.922;6.704;2023-07-16T08:53:57;4.90;;;3.00;;
2860;SDS011;1438;50.922;6.704;2023-07-16T08:56:23;7.57;;;2.70;;
2860;SDS011;1438;50.922;6.704;2023-07-16T08:58:50;4.50;;;3.23;;
2860;SDS011;1438;50.922;6.704;2023-07-16T09:01:16;9.50;;;3.03;;
2860;SDS011;1438;50.922;6.704;2023-07-16T09:03:43;5.97;;;3.20;;
2860;SDS011;1438;50.922;6.704;2023-07-16T09:06:09;5.00;;;2.97;;
2860;SDS011;1438;50.922;6.704;2023-07-16T09:08:35;5.20;;;3.20;;
2860;SDS011;1438;50.922;6.704;2023-07-16T09:11:01;5.07;;;2.90;;
2860;SDS011;1438;50.922;6.704;2023-07-16T09:13:28;4.27;;;2.87;;
2860;SDS011;1438;50.922;6.704;2023-07-16T09:15:55;4.40;;;2.90;;
2860;SDS011;1438;50.922;6.704;2023-07-16T09:18:22;4.70;;;3.23;;
2860;SDS011;1438;50.922;6.704;2023-07-16T09:20:54;3.20;;;2.57;;
2860;SDS011;1438;50.922;6.704;2023-07-16T09:23:23;3.80;;;2.83;;
2860;SDS011;1438;50.922;6.704;2023-07-16T09:25:49;3.97;;;3.10;;
2860;SDS011;1438;50.922;6.704;2023-07-16T09:28:18;4.33;;;3.07;;
2860;SDS011;1438;50.922;6.704;2023-07-16T09:30:44;5.30;;;3.13;;
2860;SDS011;1438;50.922;6.704;2023-07-16T09:33:13;5.30;;;3.13;;
2860;SDS011;1438;50.922;6.704;2023-07-16T09:35:39;4.50;;;2.47;;
2860;SDS011;1438;50.922;6.704;2023-07-16T09:38:05;5.03;;;2.80;;
2860;SDS011;1438;50.922;6.704;2023-07-16T09:40:31;3.27;;;2.90;;
2860;SDS011;1438;50.922;6.704;2023-07-16T09:42:57;4.57;;;2.77;;
2860;SDS011;1438;50.922;6.704;2023-07-16T09:45:24;4.10;;;3.00;;
2860;SDS011;1438;50.922;6.704;2023-07-16T09:47:50;2.60;;;2.40;;
2860;SDS011;1438;50.922;6.704;2023-07-16T09:50:16;3.23;;;2.67;;
2860;SDS011;1438;50.922;6.704;2023-07-16T09:52:42;5.20;;;2.63;;
2860;SDS011;1438;50.922;6.704;2023-07-16T09:55:09;2.97;;;2.67;;
2860;SDS011;1438;50.922;6.704;2023-07-16T09:57:35;2.87;;;2.67;;
2860;SDS011;1438;50.922;6.704;2023-07-16T10:00:03;3.47;;;2.33;;
2860;SDS011;1438;50.922;6.704;2023-07-16T10:02:33;14.20;;;3.17;;
2860;SDS011;1438;50.922;6.704;2023-07-16T10:05:10;3.37;;;2.70;;
2860;SDS011;1438;50.922;6.704;2023-07-16T10:07:36;6.60;;;2.70;;
2860;SDS011;1438;50.922;6.704;2023-07-16T10:10:07;3.80;;;2.80;;
2860;SDS011;1438;50.922;6.704;2023-07-16T10:12:34;3.63;;;2.77;;
2860;SDS011;1438;50.922;6.704;2023-07-16T10:15:00;4.77;;;2.60;;
2860;SDS011;1438;50.922;6.704;2023-07-16T10:17:29;6.20;;;3.50;;
2860;SDS011;1438;50.922;6.704;2023-07-16T10:20:00;3.13;;;2.53;;
2860;SDS011;1438;50.922;6.704;2023-07-16T10:24:58;3.70;;;2.97;;
2860;SDS011;1438;50.922;6.704;2023-07-16T10:27:32;3.60;;;3.07;;
2860;SDS011;1438;50.922;6.704;2023-07-16T10:29:59;3.50;;;2.67;;
2860;SDS011;1438;50.922;6.704;2023-07-16T10:32:28;3.77;;;3.07;;
2860;SDS011;1438;50.922;6.704;2023-07-16T10:34:54;3.33;;;2.77;;
2860;SDS011;1438;50.922;6.704;2023-07-16T10:37:21;3.37;;;2.73;;
2860;SDS011;1438;50.922;6.704;2023-07-16T10:39:50;3.80;;;3.20;;
2860;SDS011;1438;50.922;6.704;2023-07-16T10:42:16;6.73;;;2.90;;
2860;SDS011;1438;50.922;6.704;2023-07-16T10:44:43;2.90;;;2.60;;
2860;SDS011;1438;50.922;6.704;2023-07-16T10:47:09;4.93;;;3.10;;
2860;SDS011;1438;50.922;6.704;2023-07-16T10:49:35;3.43;;;3.10;;
2860;SDS011;1438;50.922;6.704;2023-07-16T10:52:02;4.90;;;2.93;;
2860;SDS011;1438;50.922;6.704;2023-07-16T10:54:28;4.37;;;2.60;;
2860;SDS011;1438;50.922;6.704;2023-07-16T10:56:54;2.97;;;2.27;;
2860;SDS011;1438;50.922;6.704;2023-07-16T10:59:20;3.53;;;2.77;;
2860;SDS011;1438;50.922;6.704;2023-07-16T11:01:46;4.50;;;2.90;;
2860;SDS011;1438;50.922;6.704;2023-07-16T11:04:12;8.40;;;3.27;;
2860;SDS011;1438;50.922;6.704;2023-07-16T11:06:38;4.50;;;3.40;;
2860;SDS011;1438;50.922;6.704;2023-07-16T11:09:10;8.87;;;3.80;;
2860;SDS011;1438;50.922;6.704;2023-07-16T11:11:37;3.80;;;2.60;;
2860;SDS011;1438;50.922;6.704;2023-07-16T11:14:04;4.10;;;2.43;;
2860;SDS011;1438;50.922;6.704;2023-07-16T11:16:33;5.53;;;2.90;;
2860;SDS011;1438;50.922;6.704;2023-07-16T11:19:01;5.10;;;3.30;;
2860;SDS011;1438;50.922;6.704;2023-07-16T11:21:27;3.27;;;2.37;;
2860;SDS011;1438;50.922;6.704;2023-07-16T11:23:53;4.03;;;3.03;;
2860;SDS011;1438;50.922;6.704;2023-07-16T11:26:19;6.20;;;3.20;;
2860;SDS011;1438;50.922;6.704;2023-07-16T11:28:45;4.37;;;2.83;;
2860;SDS011;1438;50.922;6.704;2023-07-16T11:31:13;6.40;;;2.70;;
2860;SDS011;1438;50.922;6.704;2023-07-16T11:33:41;3.20;;;2.83;;
2860;SDS011;1438;50.922;6.704;2023-07-16T11:36:07;4.47;;;3.20;;
2860;SDS011;1438;50.922;6.704;2023-07-16T11:38:37;4.17;;;2.53;;
2860;SDS011;1438;50.922;6.704;2023-07-16T11:41:03;3.57;;;2.47;;
2860;SDS011;1438;50.922;6.704;2023-07-16T11:43:33;4.30;;;3.60;;
2860;SDS011;1438;50.922;6.704;2023-07-16T11:46:00;6.33;;;2.70;;
2860;SDS011;1438;50.922;6.704;2023-07-16T11:48:26;4.00;;;2.47;;
2860;SDS011;1438;50.922;6.704;2023-07-16T11:50:52;3.50;;;2.77;;
2860;SDS011;1438;50.922;6.704;2023-07-16T11:53:18;2.63;;;2.27;;
2860;SDS011;1438;50.922;6.704;2023-07-16T11:55:44;4.10;;;2.43;;
2860;SDS011;1438;50.922;6.704;2023-07-16T11:58:10;2.70;;;2.50;;
2860;SDS011;1438;50.922;6.704;2023-07-16T12:00:36;4.00;;;3.37;;
2860;SDS011;1438;50.922;6.704;2023-07-16T12:03:02;5.43;;;3.13;;
2860;SDS011;1438;50.922;6.704;2023-07-16T12:05:28;4.03;;;3.07;;
2860;SDS011;1438;50.922;6.704;2023-07-16T12:07:54;4.47;;;3.10;;
2860;SDS011;1438;50.922;6.704;2023-07-16T12:10:20;3.33;;;2.80;;
2860;SDS011;1438;50.922;6.704;2023-07-16T12:12:46;4.10;;;3.30;;
2860;SDS011;1438;50.922;6.704;2023-07-16T12:15:12;5.43;;;3.63;;
2860;SDS011;1438;50.922;6.704;2023-07-16T12:17:38;4.33;;;3.20;;
2860;SDS011;1438;50.922;6.704;2023-07-16T12:20:04;7.37;;;3.40;;
2860;SDS011;1438;50.922;6.704;2023-07-16T12:22:30;5.70;;;3.47;;
2860;SDS011;1438;50.922;6.704;2023-07-16T12:24:57;5.07;;;3.10;;
2860;SDS011;1438;50.922;6.704;2023-07-16T12:27:22;5.70;;;2.93;;
2860;SDS011;1438;50.922;6.704;2023-07-16T12:29:48;4.33;;;3.00;;
2860;SDS011;1438;50.922;6.704;2023-07-16T12:32:14;4.50;;;3.20;;
2860;SDS011;1438;50.922;6.704;2023-07-16T12:34:41;3.50;;;2.40;;
2860;SDS011;1438;50.922;6.704;2023-07-16T12:37:07;4.57;;;3.00;;
2860;SDS011;1438;50.922;6.704;2023-07-16T12:39:33;4.23;;;2.40;;
2860;SDS011;1438;50.922;6.704;2023-07-16T12:41:59;4.10;;;2.73;;
2860;SDS011;1438;50.922;6.704;2023-07-16T12:44:25;4.83;;;3.10;;
2860;SDS011;1438;50.922;6.704;2023-07-16T12:46:51;3.87;;;3.10;;
2860;SDS011;1438;50.922;6.704;2023-07-16T12:49:17;4.83;;;3.40;;
2860;SDS011;1438;50.922;6.704;2023-07-16T12:51:43;5.20;;;3.30;;
2860;SDS011;1438;50.922;6.704;2023-07-16T12:54:09;5.30;;;3.30;;
2860;SDS011;1438;50.922;6.704;2023-07-16T12:56:35;4.60;;;3.20;;
2860;SDS011;1438;50.922;6.704;2023-07-16T12:59:01;3.60;;;3.23;;
2860;SDS011;1438;50.922;6.704;2023-07-16T13:01:28;4.00;;;2.90;;
2860;SDS011;1438;50.922;6.704;2023-07-16T13:03:55;4.00;;;3.00;;
2860;SDS011;1438;50.922;6.704;2023-07-16T13:06:21;3.00;;;2.40;;
2860;SDS011;1438;50.922;6.704;2023-07-16T13:08:47;4.00;;;2.90;;
2860;SDS011;1438;50.922;6.704;2023-07-16T13:11:13;3.87;;;2.67;;
2860;SDS011;1438;50.922;6.704;2023-07-16T13:13:39;6.50;;;3.23;;
2860;SDS011;1438;50.922;6.704;2023-07-16T13:16:07;2.60;;;2.10;;
2860;SDS011;1438;50.922;6.704;2023-07-16T13:18:33;4.23;;;3.10;;
2860;SDS011;1438;50.922;6.704;2023-07-16T13:20:59;4.37;;;2.40;;
2860;SDS011;1438;50.922;6.704;2023-07-16T13:23:25;3.60;;;2.47;;
2860;SDS011;1438;50.922;6.704;2023-07-16T13:25:51;4.63;;;2.60;;
2860;SDS011;1438;50.922;6.704;2023-07-16T13:28:17;3.77;;;2.63;;
2860;SDS011;1438;50.922;6.704;2023-07-16T13:30:43;5.27;;;2.60;;
2860;SDS011;1438;50.922;6.704;2023-07-16T13:33:09;4.70;;;2.97;;
2860;SDS011;1438;50.922;6.704;2023-07-16T13:35:35;2.70;;;2.50;;
2860;SDS011;1438;50.922;6.704;2023-07-16T13:38:01;3.90;;;2.90;;
2860;SDS011;1438;50.922;6.704;2023-07-16T13:40:28;4.40;;;2.97;;
2860;SDS011;1438;50.922;6.704;2023-07-16T13:42:54;4.60;;;2.57;;
2860;SDS011;1438;50.922;6.704;2023-07-16T13:45:29;3.60;;;3.07;;
2860;SDS011;1438;50.922;6.704;2023-07-16T13:47:55;4.13;;;2.37;;
2860;SDS011;1438;50.922;6.704;2023-07-16T13:50:21;4.87;;;2.40;;
2860;SDS011;1438;50.922;6.704;2023-07-16T13:52:47;3.23;;;2.27;;
2860;SDS011;1438;50.922;6.704;2023-07-16T13:55:13;3.23;;;2.13;;
2860;SDS011;1438;50.922;6.704;2023-07-16T13:57:39;5.50;;;3.17;;
2860;SDS011;1438;50.922;6.704;2023-07-16T14:00:06;3.33;;;2.77;;
2860;SDS011;1438;50.922;6.704;2023-07-16T14:02:34;9.23;;;7.13;;
2860;SDS011;1438;50.922;6.704;2023-07-16T14:05:00;4.27;;;2.87;;
2860;SDS011;1438;50.922;6.704;2023-07-16T14:07:26;7.97;;;3.37;;
2860;SDS011;1438;50.922;6.704;2023-07-16T14:09:52;11.60;;;3.10;;
2860;SDS011;1438;50.922;6.704;2023-07-16T14:12:18;4.50;;;2.90;;
2860;SDS011;1438;50.922;6.704;2023-07-16T14:14:44;6.00;;;2.63;;
2860;SDS011;1438;50.922;6.704;2023-07-16T14:17:10;3.53;;;2.40;;
2860;SDS011;1438;50.922;6.704;2023-07-16T14:19:36;2.63;;;2.20;;
2860;SDS011;1438;50.922;6.704;2023-07-16T14:22:03;3.97;;;2.60;;
2860;SDS011;1438;50.922;6.704;2023-07-16T14:24:30;4.43;;;3.10;;
2860;SDS011;1438;50.922;6.704;2023-07-16T14:26:57;4.33;;;2.70;;
2860;SDS011;1438;50.922;6.704;2023-07-16T14:29:25;4.00;;;2.40;;
2860;SDS011;1438;50.922;6.704;2023-07-16T14:31:52;3.23;;;2.37;;
2860;SDS011;1438;50.922;6.704;2023-07-16T14:34:18;5.27;;;3.23;;
2860;SDS011;1438;50.922;6.704;2023-07-16T14:36:44;5.13;;;2.70;;
2860;SDS011;1438;50.922;6.704;2023-07-16T14:39:11;4.33;;;3.10;;
2860;SDS011;1438;50.922;6.704;2023-07-16T14:41:37;4.90;;;2.40;;
2860;SDS011;1438;50.922;6.704;2023-07-16T14:44:04;3.43;;;2.40;;
2860;SDS011;1438;50.922;6.704;2023-07-16T14:46:30;8.00;;;3.03;;
2860;SDS011;1438;50.922;6.704;2023-07-16T14:48:56;3.03;;;2.57;;
2860;SDS011;1438;50.922;6.704;2023-07-16T14:51:23;4.20;;;2.23;;
2860;SDS011;1438;50.922;6.704;2023-07-16T14:53:50;5.50;;;3.30;;
2860;SDS011;1438;50.922;6.704;2023-07-16T14:56:17;3.33;;;2.00;;
2860;SDS011;1438;50.922;6.704;2023-07-16T14:58:43;5.97;;;2.87;;
2860;SDS011;1438;50.922;6.704;2023-07-16T15:01:09;3.60;;;2.77;;
2860;SDS011;1438;50.922;6.704;2023-07-16T15:03:36;5.53;;;3.07;;
2860;SDS011;1438;50.922;6.704;2023-07-16T15:06:02;5.53;;;2.60;;
2860;SDS011;1438;50.922;6.704;2023-07-16T15:08:28;4.87;;;2.47;;
2860;SDS011;1438;50.922;6.704;2023-07-16T15:10:55;2.50;;;2.30;;
2860;SDS011;1438;50.922;6.704;2023-07-16T15:13:21;5.43;;;2.47;;
2860;SDS011;1438;50.922;6.704;2023-07-16T15:15:50;5.50;;;3.67;;
2860;SDS011;1438;50.922;6.704;2023-07-16T15:18:17;7.43;;;3.30;;
2860;SDS011;1438;50.922;6.704;2023-07-16T15:20:43;4.60;;;2.73;;
2860;SDS011;1438;50.922;6.704;2023-07-16T15:23:09;5.93;;;3.07;;